createdAt,value
2023-02-12T00:01:12.524Z,39.88
2023-02-12T00:03:19.991Z,37.10
2023-02-12T00:05:25.172Z,38.33
2023-02-12T00:07:33.317Z,38.95
2023-02-12T00:09:39.247Z,36.40
2023-02-12T00:11:44.913Z,37.28
2023-02-12T00:13:50.353Z,34.60
2023-02-12T00:15:55.599Z,39.33
2023-02-12T00:18:00.626Z,37.00
2023-02-12T00:20:09.440Z,33.10
2023-02-12T00:22:14.311Z,32.67
2023-02-12T00:24:19.193Z,32.20
2023-02-12T00:26:25.365Z,34.50
2023-02-12T00:28:30.795Z,33.42
2023-02-12T00:30:35.715Z,34.42
2023-02-12T00:32:40.974Z,35.47
2023-02-12T00:34:45.942Z,30.75
2023-02-12T00:36:55.903Z,32.80
2023-02-12T00:39:01.196Z,29.17
2023-02-12T00:43:10.685Z,32.17
2023-02-12T00:45:15.749Z,29.67
2023-02-12T00:49:28.348Z,34.42
2023-02-12T00:53:41.072Z,30.58
2023-02-12T00:55:45.988Z,30.00
2023-02-12T00:57:50.806Z,31.58
2023-02-12T00:59:55.694Z,26.58
2023-02-12T01:02:01.764Z,30.38
2023-02-12T01:04:07.118Z,31.88
2023-02-12T01:06:12.097Z,32.47
2023-02-12T01:08:19.625Z,31.52
2023-02-12T01:10:27.299Z,30.52
2023-02-12T01:12:32.227Z,32.97
2023-02-12T01:14:37.420Z,31.65
2023-02-12T01:16:42.337Z,30.77
2023-02-12T01:18:48.665Z,31.95
2023-02-12T01:20:53.734Z,31.20
2023-02-12T01:23:01.811Z,29.30
2023-02-12T01:27:13.955Z,29.00
2023-02-12T01:29:18.745Z,32.60
2023-02-12T01:31:25.461Z,28.27
2023-02-12T01:33:31.687Z,34.60
2023-02-12T01:35:37.593Z,34.97
2023-02-12T01:37:42.445Z,29.23
2023-02-12T01:39:47.302Z,32.40
2023-02-12T01:41:55.868Z,35.28
2023-02-12T01:44:28.706Z,33.15
2023-02-12T01:46:33.644Z,33.78
2023-02-12T01:48:41.779Z,31.65
2023-02-12T01:50:49.271Z,31.05
2023-02-12T01:52:57.695Z,33.97
2023-02-12T01:55:08.304Z,30.20
2023-02-12T01:57:15.720Z,37.70
2023-02-12T01:59:22.928Z,32.25
2023-02-12T02:01:32.770Z,35.38
2023-02-12T02:03:40.605Z,38.70
2023-02-12T02:05:55.235Z,36.75
2023-02-12T02:08:01.971Z,35.92
2023-02-12T02:10:10.783Z,34.63
2023-02-12T02:12:28.126Z,38.05
2023-02-12T02:14:33.606Z,35.30
2023-02-12T02:16:48.318Z,36.15
2023-02-12T02:19:02.599Z,40.83
2023-02-12T02:21:34.835Z,39.17
2023-02-12T02:24:09.204Z,32.30
2023-02-12T02:26:40.057Z,39.47
2023-02-12T02:29:10.586Z,34.58
2023-02-12T02:31:23.961Z,35.17
2023-02-12T02:33:42.441Z,33.83
2023-02-12T02:35:56.453Z,33.40
2023-02-12T02:38:10.473Z,37.58
2023-02-12T02:40:20.385Z,29.00
2023-02-12T02:42:30.605Z,34.17
2023-02-12T02:44:41.871Z,36.03
2023-02-12T02:46:51.974Z,33.80
2023-02-12T02:49:02.233Z,41.08
2023-02-12T02:51:12.141Z,35.42
2023-02-12T02:53:21.569Z,31.95
2023-02-12T02:55:31.262Z,33.67
2023-02-12T02:57:41.540Z,32.20
2023-02-12T02:59:51.690Z,31.80
2023-02-12T03:02:06.067Z,30.52
2023-02-12T03:04:15.614Z,30.73
2023-02-12T03:06:27.505Z,30.35
2023-02-12T03:08:37.250Z,33.95
2023-02-12T03:10:45.833Z,27.33
2023-02-12T03:12:56.882Z,31.77
2023-02-12T03:15:07.763Z,41.40
2023-02-12T03:17:19.864Z,34.08
2023-02-12T03:19:28.055Z,35.90
2023-02-12T03:21:36.674Z,31.30
2023-02-12T03:23:49.129Z,29.17
2023-02-12T03:25:57.882Z,34.35
2023-02-12T03:28:09.653Z,38.65
2023-02-12T03:30:17.113Z,35.55
2023-02-12T03:32:34.236Z,35.03
2023-02-12T03:34:49.094Z,33.58
2023-02-12T03:36:58.750Z,34.25
2023-02-12T03:39:12.369Z,35.83
2023-02-12T03:41:23.860Z,36.10
2023-02-12T03:43:35.949Z,36.65
2023-02-12T03:45:47.854Z,34.70
2023-02-12T03:48:05.233Z,35.92
2023-02-12T03:50:17.093Z,35.83
2023-02-12T03:52:22.012Z,34.88
2023-02-12T03:54:27.567Z,36.08
2023-02-12T03:56:38.262Z,33.80
2023-02-12T03:58:45.826Z,33.28
2023-02-12T04:00:51.240Z,40.88
2023-02-12T04:02:59.535Z,40.38
2023-02-12T04:05:08.045Z,37.40
2023-02-12T04:07:13.293Z,37.30
2023-02-12T04:11:32.556Z,33.22
2023-02-12T04:13:45.569Z,38.20
2023-02-12T04:16:05.913Z,35.90
2023-02-12T04:18:18.054Z,36.83
2023-02-12T04:20:30.522Z,38.78
2023-02-12T04:22:48.952Z,36.45
2023-02-12T04:25:02.614Z,35.97
2023-02-12T04:27:15.450Z,33.80
2023-02-12T04:29:28.706Z,31.48
2023-02-12T04:31:40.561Z,30.88
2023-02-12T04:34:00.666Z,32.05
2023-02-12T04:36:11.999Z,39.03
2023-02-12T04:38:22.501Z,34.55
2023-02-12T04:40:27.750Z,35.47
2023-02-12T04:44:42.137Z,34.28
2023-02-12T04:46:46.903Z,32.20
2023-02-12T04:48:57.650Z,32.17
2023-02-12T04:51:02.586Z,31.17
2023-02-12T04:53:07.386Z,29.70
2023-02-12T04:55:12.257Z,39.35
2023-02-12T04:57:17.147Z,33.03
2023-02-12T04:59:22.037Z,30.85
2023-02-12T05:01:28.070Z,38.72
2023-02-12T05:03:34.090Z,36.40
2023-02-12T05:05:41.479Z,36.08
2023-02-12T05:07:46.372Z,41.60
2023-02-12T05:09:51.237Z,36.30
2023-02-12T05:11:56.138Z,37.97
2023-02-12T05:14:01.694Z,43.92
2023-02-12T05:16:07.590Z,42.63
2023-02-12T05:18:12.483Z,36.90
2023-02-12T05:20:17.461Z,36.78
2023-02-12T05:22:24.926Z,33.50
2023-02-12T05:24:29.997Z,33.97
2023-02-12T05:26:34.810Z,36.97
2023-02-12T05:28:39.679Z,35.05
2023-02-12T05:30:44.546Z,38.17
2023-02-12T05:32:49.628Z,42.10
2023-02-12T05:34:54.951Z,40.88
2023-02-12T05:37:02.408Z,42.22
2023-02-12T05:39:10.342Z,44.60
2023-02-12T05:41:17.028Z,48.30
2023-02-12T05:43:21.788Z,47.40
2023-02-12T05:45:28.239Z,41.42
2023-02-12T05:47:33.035Z,43.85
2023-02-12T05:49:37.854Z,44.13
2023-02-12T05:51:42.746Z,45.55
2023-02-12T05:53:47.546Z,44.05
2023-02-12T05:55:57.453Z,46.08
2023-02-12T05:58:02.316Z,45.85
2023-02-12T06:00:09.754Z,45.33
2023-02-12T06:02:17.011Z,43.22
2023-02-12T06:04:23.860Z,44.15
2023-02-12T06:06:29.157Z,45.25
2023-02-12T06:08:34.361Z,47.95
2023-02-12T06:12:47.392Z,38.33
2023-02-12T06:14:52.317Z,37.63
2023-02-12T06:16:57.411Z,35.58
2023-02-12T06:23:13.674Z,45.50
2023-02-12T06:25:18.636Z,44.00
2023-02-12T06:27:23.463Z,42.58
2023-02-12T06:29:30.879Z,42.67
2023-02-12T06:31:39.370Z,39.10
2023-02-12T06:33:44.265Z,38.67
2023-02-12T06:35:49.076Z,40.88
2023-02-12T06:37:53.882Z,38.63
2023-02-12T06:39:58.729Z,37.72
2023-02-12T06:42:04.521Z,40.17
2023-02-12T06:44:09.827Z,39.42
2023-02-12T06:48:22.241Z,38.05
2023-02-12T06:50:27.574Z,39.00
2023-02-12T06:52:32.545Z,36.08
2023-02-12T06:54:37.358Z,36.47
2023-02-12T06:56:42.293Z,35.25
2023-02-12T06:58:50.332Z,35.38
2023-02-12T07:00:55.307Z,37.35
2023-02-12T07:03:02.850Z,37.38
2023-02-12T07:05:10.895Z,33.75
2023-02-12T07:07:16.007Z,39.78
2023-02-12T07:09:20.900Z,37.72
2023-02-12T07:11:27.050Z,37.50
2023-02-12T07:13:35.061Z,35.03
2023-02-12T07:15:42.490Z,38.05
2023-02-12T07:17:47.370Z,40.70
2023-02-12T07:19:57.270Z,41.50
2023-02-12T07:22:02.385Z,36.75
2023-02-12T07:26:15.491Z,38.15
2023-02-12T07:28:20.310Z,38.50
2023-02-12T07:30:25.425Z,39.97
2023-02-12T07:32:30.214Z,39.60
2023-02-12T07:34:35.520Z,34.78
2023-02-12T07:36:43.056Z,37.92
2023-02-12T07:38:48.176Z,37.78
2023-02-12T07:40:53.203Z,40.95
2023-02-12T07:42:58.833Z,38.08
2023-02-12T07:45:03.590Z,39.10
2023-02-12T07:47:08.407Z,38.92
2023-02-12T07:49:16.146Z,40.05
2023-02-12T07:51:21.617Z,35.97
2023-02-12T07:53:28.972Z,34.88
2023-02-12T07:55:33.936Z,40.42
2023-02-12T07:57:39.366Z,37.30
2023-02-12T07:59:44.204Z,43.85
2023-02-12T08:01:51.101Z,39.80
2023-02-12T08:03:56.475Z,38.60
2023-02-12T08:06:01.255Z,42.63
2023-02-12T08:08:06.165Z,40.92
2023-02-12T08:10:16.759Z,39.88
2023-02-12T08:12:22.031Z,47.20
2023-02-12T08:14:26.946Z,43.80
2023-02-12T08:16:33.189Z,42.30
2023-02-12T08:18:38.220Z,38.75
2023-02-12T08:20:43.170Z,42.22
2023-02-12T08:22:47.975Z,39.28
2023-02-12T08:24:52.803Z,40.08
2023-02-12T08:27:00.949Z,39.65
2023-02-12T08:29:07.990Z,38.67
2023-02-12T08:31:15.436Z,36.33
2023-02-12T08:33:20.299Z,39.72
2023-02-12T08:35:25.077Z,40.38
2023-02-12T08:37:29.831Z,40.00
2023-02-12T08:39:34.734Z,42.22
2023-02-12T08:41:40.137Z,40.95
2023-02-12T08:43:48.064Z,40.10
2023-02-12T08:45:53.298Z,40.60
2023-02-12T08:47:58.454Z,44.03
2023-02-12T08:50:03.879Z,44.88
2023-02-12T08:52:08.748Z,46.15
2023-02-12T08:54:15.662Z,44.53
2023-02-12T08:56:21.096Z,46.08
2023-02-12T08:58:25.986Z,43.60
2023-02-12T09:00:33.480Z,50.00
2023-02-12T09:02:38.395Z,47.25
2023-02-12T09:04:43.201Z,48.15
2023-02-12T09:06:49.192Z,42.60
2023-02-12T09:08:56.979Z,46.40
2023-02-12T09:11:02.062Z,46.47
2023-02-12T09:13:06.982Z,45.90
2023-02-12T09:15:12.349Z,45.95
2023-02-12T09:17:19.872Z,45.33
2023-02-12T09:19:24.942Z,42.50
2023-02-12T09:21:30.269Z,48.00
2023-02-12T09:23:35.330Z,53.03
2023-02-12T09:25:44.827Z,51.92
2023-02-12T09:27:49.650Z,51.85
2023-02-12T09:29:55.044Z,43.22
2023-02-12T09:31:59.883Z,55.85
2023-02-12T09:34:08.957Z,51.55
2023-02-12T09:36:16.057Z,55.25
2023-02-12T09:38:20.852Z,57.92
2023-02-12T09:40:33.889Z,57.10
2023-02-12T09:43:02.966Z,54.45
2023-02-12T09:45:19.410Z,60.83
2023-02-12T09:47:29.265Z,60.75
2023-02-12T09:50:09.948Z,60.38
2023-02-12T09:52:19.556Z,55.22
2023-02-12T09:54:28.817Z,55.40
2023-02-12T09:56:39.792Z,56.70
2023-02-12T09:58:49.337Z,60.00
2023-02-12T10:00:56.781Z,60.20
2023-02-12T10:03:05.914Z,74.70
2023-02-12T10:05:20.428Z,58.30
2023-02-12T10:07:39.942Z,63.00
2023-02-12T10:10:01.067Z,69.53
2023-02-12T10:12:15.600Z,62.65
2023-02-12T10:14:37.408Z,64.28
2023-02-12T10:16:52.198Z,59.25
2023-02-12T10:19:17.267Z,58.65
2023-02-12T10:21:42.492Z,49.13
2023-02-12T10:24:03.322Z,55.47
2023-02-12T10:26:19.196Z,45.03
2023-02-12T10:28:29.271Z,35.65
2023-02-12T10:30:42.850Z,50.00
2023-02-12T10:32:50.534Z,46.22
2023-02-12T10:34:56.688Z,40.42
2023-02-12T10:37:07.983Z,42.88
2023-02-12T10:39:19.902Z,34.63
2023-02-12T10:41:27.737Z,36.30
2023-02-12T10:43:32.803Z,36.80
2023-02-12T10:45:40.121Z,44.55
2023-02-12T10:47:45.208Z,43.85
2023-02-12T10:49:55.605Z,40.25
2023-02-12T10:52:12.476Z,40.00
2023-02-12T10:54:40.361Z,41.17
2023-02-12T10:56:45.348Z,41.95
2023-02-12T10:59:01.806Z,42.17
2023-02-12T11:01:07.739Z,39.25
2023-02-12T11:03:23.835Z,36.88
2023-02-12T11:05:34.734Z,41.95
2023-02-12T11:07:52.223Z,36.20
2023-02-12T11:09:59.681Z,42.92
2023-02-12T11:12:05.477Z,36.70
2023-02-12T11:14:21.254Z,37.80
2023-02-12T11:16:34.577Z,34.17
2023-02-12T11:18:39.965Z,38.25
2023-02-12T11:20:56.009Z,40.13
2023-02-12T11:23:06.448Z,39.65
2023-02-12T11:25:18.708Z,41.00
2023-02-12T11:27:28.814Z,35.60
2023-02-12T11:29:33.800Z,41.00
2023-02-12T11:31:41.719Z,35.60
2023-02-12T11:33:46.782Z,38.65
2023-02-12T11:35:57.527Z,40.05
2023-02-12T11:38:07.156Z,32.50
2023-02-12T11:40:19.810Z,35.30
2023-02-12T11:42:28.715Z,35.10
2023-02-12T11:44:37.155Z,31.17
2023-02-12T11:46:43.147Z,30.77
2023-02-12T11:48:50.174Z,31.23
2023-02-12T11:50:57.707Z,29.75
2023-02-12T11:53:09.520Z,30.55
2023-02-12T11:55:24.883Z,34.10
2023-02-12T11:57:39.959Z,33.33
2023-02-12T11:59:49.869Z,37.83
2023-02-12T12:01:58.196Z,30.08
2023-02-12T12:04:08.056Z,29.38
2023-02-12T12:06:24.362Z,36.45
2023-02-12T12:08:36.450Z,34.08
2023-02-12T12:10:47.289Z,31.67
2023-02-12T12:12:56.029Z,32.38
2023-02-12T12:15:18.117Z,31.02
2023-02-12T12:17:38.478Z,31.73
2023-02-12T12:19:56.394Z,32.05
2023-02-12T12:22:08.018Z,30.52
2023-02-12T12:24:20.236Z,30.27
2023-02-12T12:26:28.193Z,30.90
2023-02-12T12:28:37.911Z,32.92
2023-02-12T12:30:52.451Z,34.67
2023-02-12T12:33:02.410Z,30.73
2023-02-12T12:35:08.426Z,29.75
2023-02-12T12:37:27.754Z,34.78
2023-02-12T12:39:39.562Z,35.38
2023-02-12T12:42:00.042Z,29.77
2023-02-12T12:44:18.300Z,40.35
2023-02-12T12:46:43.317Z,29.23
2023-02-12T12:49:23.697Z,35.03
2023-02-12T12:51:41.430Z,34.53
2023-02-12T12:53:57.857Z,28.27
2023-02-12T12:56:22.101Z,33.55
2023-02-12T12:58:39.385Z,35.15
2023-02-12T13:01:05.239Z,29.88
2023-02-12T13:03:40.725Z,31.77
2023-02-12T13:06:09.614Z,32.50
2023-02-12T13:08:28.624Z,31.85
2023-02-12T13:10:39.620Z,35.75
2023-02-12T13:13:03.134Z,62.20
2023-02-12T13:15:18.048Z,45.83
2023-02-12T13:17:28.459Z,36.97
2023-02-12T13:19:44.978Z,31.10
2023-02-12T13:21:57.764Z,39.40
2023-02-12T13:24:06.439Z,38.42
2023-02-12T13:26:20.817Z,34.90
2023-02-12T13:28:36.646Z,36.55
2023-02-12T13:30:45.955Z,30.80
2023-02-12T13:32:58.768Z,34.38
2023-02-12T13:35:06.000Z,35.08
2023-02-12T13:37:18.938Z,30.38
2023-02-12T13:39:34.062Z,34.42
2023-02-12T13:41:39.714Z,33.95
2023-02-12T13:44:01.158Z,30.77
2023-02-12T13:46:14.062Z,32.70
2023-02-12T13:48:44.309Z,35.20
2023-02-12T13:51:01.435Z,31.50
2023-02-12T13:53:17.163Z,36.55
2023-02-12T13:55:28.218Z,34.10
2023-02-12T13:57:33.345Z,37.65
2023-02-12T14:01:51.832Z,31.15
2023-02-12T14:03:56.973Z,35.00
2023-02-12T14:06:14.039Z,31.67
2023-02-12T14:08:40.088Z,32.20
2023-02-12T14:10:45.322Z,36.50
2023-02-12T14:15:07.275Z,34.58
2023-02-12T14:17:43.008Z,35.65
2023-02-12T14:20:08.970Z,30.55
2023-02-12T14:22:16.260Z,34.58
2023-02-12T14:24:56.046Z,29.70
2023-02-12T14:27:01.569Z,31.65
2023-02-12T14:29:17.942Z,35.10
2023-02-12T14:31:36.810Z,34.20
2023-02-12T14:33:41.746Z,29.95
2023-02-12T14:35:49.576Z,31.38
2023-02-12T14:37:56.970Z,34.22
2023-02-12T14:40:31.734Z,36.05
2023-02-12T14:42:47.487Z,35.20
2023-02-12T14:44:59.291Z,34.25
2023-02-12T14:47:12.916Z,34.35
2023-02-12T14:49:28.210Z,38.40
2023-02-12T14:51:39.723Z,31.02
2023-02-12T14:53:46.719Z,28.38
2023-02-12T14:55:54.027Z,30.42
2023-02-12T14:58:02.892Z,31.35
2023-02-12T15:00:23.908Z,39.72
2023-02-12T15:02:35.349Z,32.50
2023-02-12T15:04:44.593Z,32.40
2023-02-12T15:06:55.572Z,32.97
2023-02-12T15:09:05.550Z,32.25
2023-02-12T15:11:19.928Z,31.67
2023-02-12T15:13:31.316Z,36.05
2023-02-12T15:15:42.070Z,33.97
2023-02-12T15:17:59.285Z,31.80
2023-02-12T15:20:08.449Z,33.55
2023-02-12T15:22:23.182Z,33.08
2023-02-12T15:24:29.587Z,32.78
2023-02-12T15:26:39.497Z,31.73
2023-02-12T15:28:49.338Z,31.60
2023-02-12T15:30:58.897Z,30.88
2023-02-12T15:33:08.556Z,30.42
2023-02-12T15:35:25.938Z,32.60
2023-02-12T15:37:34.056Z,36.45
2023-02-12T15:39:45.284Z,32.15
2023-02-12T15:41:50.845Z,33.65
2023-02-12T15:43:55.783Z,32.15
2023-02-12T15:46:00.866Z,36.88
2023-02-12T15:48:15.533Z,34.75
2023-02-12T15:50:22.722Z,35.42
2023-02-12T15:52:35.461Z,33.67
2023-02-12T15:54:41.297Z,40.72
2023-02-12T15:56:46.193Z,38.35
2023-02-12T15:58:55.825Z,37.05
2023-02-12T16:01:06.428Z,31.00
2023-02-12T16:03:24.378Z,34.00
2023-02-12T16:05:30.231Z,35.22
2023-02-12T16:07:39.691Z,34.20
2023-02-12T16:09:46.129Z,38.45
2023-02-12T16:11:51.677Z,35.10
2023-02-12T16:13:59.659Z,35.22
2023-02-12T16:16:10.539Z,37.17
2023-02-12T16:18:30.424Z,35.88
2023-02-12T16:20:35.534Z,37.03
2023-02-12T16:22:42.572Z,35.85
2023-02-12T16:24:50.388Z,38.42
2023-02-12T16:26:55.679Z,40.25
2023-02-12T16:31:14.745Z,58.20
2023-02-12T16:33:38.618Z,39.30
2023-02-12T16:35:43.477Z,41.15
2023-02-12T16:37:51.124Z,39.92
2023-02-12T16:40:37.634Z,36.70
2023-02-12T16:42:42.603Z,43.92
2023-02-12T16:44:47.507Z,40.03
2023-02-12T16:46:55.075Z,39.70
2023-02-12T16:49:04.838Z,38.85
2023-02-12T16:51:24.626Z,48.33
2023-02-12T16:53:43.925Z,42.33
2023-02-12T16:55:48.865Z,39.17
2023-02-12T16:57:56.724Z,41.35
2023-02-12T17:00:01.618Z,43.17
2023-02-12T17:02:09.927Z,40.88
2023-02-12T17:04:19.065Z,44.03
2023-02-12T17:06:25.854Z,43.47
2023-02-12T17:08:30.702Z,41.35
2023-02-12T17:10:35.506Z,40.08
2023-02-12T17:12:47.858Z,42.28
2023-02-12T17:14:55.152Z,40.67
2023-02-12T17:17:00.026Z,41.55
2023-02-12T17:19:04.901Z,39.85
2023-02-12T17:21:19.885Z,39.38
2023-02-12T17:23:25.188Z,43.88
2023-02-12T17:27:37.327Z,42.72
2023-02-12T17:29:42.914Z,42.25
2023-02-12T17:31:48.326Z,42.08
2023-02-12T17:33:55.511Z,48.60
2023-02-12T17:36:01.243Z,49.55
2023-02-12T17:38:09.415Z,47.35
2023-02-12T17:40:14.978Z,41.78
2023-02-12T17:42:20.152Z,46.90
2023-02-12T17:44:24.930Z,48.35
2023-02-12T17:46:31.661Z,57.75
2023-02-12T17:48:36.467Z,44.95
2023-02-12T17:50:41.989Z,47.03
2023-02-12T17:52:47.118Z,47.00
2023-02-12T17:54:56.890Z,39.35
2023-02-12T17:57:01.735Z,42.72
2023-02-12T17:59:06.685Z,46.53
2023-02-12T18:01:13.512Z,41.08
2023-02-12T18:03:18.417Z,41.63
2023-02-12T18:05:23.297Z,42.55
2023-02-12T18:07:28.240Z,44.88
2023-02-12T18:09:33.597Z,44.63
2023-02-12T18:11:42.488Z,52.67
2023-02-12T18:13:47.689Z,45.90
2023-02-12T18:17:59.676Z,44.28
2023-02-12T18:20:04.834Z,49.53
2023-02-12T18:22:09.857Z,51.75
2023-02-12T18:24:15.504Z,51.40
2023-02-12T18:26:21.742Z,49.90
2023-02-12T18:28:29.272Z,46.92
2023-02-12T18:30:34.292Z,43.28
2023-02-12T18:32:39.611Z,49.50
2023-02-12T18:36:49.499Z,54.28
2023-02-12T18:38:55.612Z,47.97
2023-02-12T18:41:01.135Z,47.88
2023-02-12T18:43:05.970Z,49.83
2023-02-12T18:45:13.590Z,53.40
2023-02-12T18:47:19.734Z,51.63
2023-02-12T18:49:33.519Z,49.50
2023-02-12T18:51:41.168Z,47.20
2023-02-12T18:53:46.679Z,51.80
2023-02-12T18:55:58.082Z,42.05
2023-02-12T18:58:05.262Z,43.95
2023-02-12T19:00:16.293Z,52.28
2023-02-12T19:02:21.294Z,46.50
2023-02-12T19:04:28.550Z,47.95
2023-02-12T19:06:39.364Z,40.65
2023-02-12T19:08:46.654Z,48.63
2023-02-12T19:10:55.259Z,44.42
2023-02-12T19:13:01.088Z,46.10
2023-02-12T19:15:08.271Z,43.22
2023-02-12T19:17:15.647Z,45.53
2023-02-12T19:19:23.649Z,40.95
2023-02-12T19:21:28.849Z,45.60
2023-02-12T19:25:42.814Z,43.17
2023-02-12T19:27:47.690Z,38.88
2023-02-12T19:29:52.532Z,41.95
2023-02-12T19:31:59.622Z,48.90
2023-02-12T19:34:10.408Z,45.40
2023-02-12T19:36:20.481Z,46.33
2023-02-12T19:38:28.091Z,51.63
2023-02-12T19:40:33.297Z,54.78
2023-02-12T19:42:38.112Z,48.97
2023-02-12T19:44:44.596Z,45.42
2023-02-12T19:46:52.667Z,46.13
2023-02-12T19:49:02.654Z,45.08
2023-02-12T19:51:16.214Z,45.22
2023-02-12T19:53:24.325Z,42.13
2023-02-12T19:55:29.086Z,46.63
2023-02-12T19:57:39.069Z,42.00
2023-02-12T19:59:46.555Z,43.58
2023-02-12T20:01:52.314Z,45.95
2023-02-12T20:04:00.682Z,49.75
2023-02-12T20:06:13.437Z,51.38
2023-02-12T20:08:24.886Z,53.63
2023-02-12T20:10:29.772Z,51.10
2023-02-12T20:12:36.332Z,60.97
2023-02-12T20:14:41.249Z,64.55
2023-02-12T20:16:48.061Z,48.08
2023-02-12T20:19:02.702Z,46.47
2023-02-12T20:21:15.573Z,50.15
2023-02-12T20:23:20.435Z,45.40
2023-02-12T20:25:32.520Z,47.95
2023-02-12T20:27:37.482Z,41.90
2023-02-12T20:29:42.260Z,49.95
2023-02-12T20:31:49.771Z,55.25
2023-02-12T20:33:58.203Z,52.95
2023-02-12T20:36:05.298Z,51.15
2023-02-12T20:38:12.770Z,50.95
2023-02-12T20:40:20.710Z,47.25
2023-02-12T20:42:25.650Z,50.45
2023-02-12T20:44:37.246Z,47.42
2023-02-12T20:46:42.844Z,47.33
2023-02-12T20:48:51.514Z,51.20
2023-02-12T20:50:56.459Z,51.45
2023-02-12T20:55:10.759Z,44.90
2023-02-12T20:57:15.705Z,44.78
2023-02-12T20:59:21.254Z,48.60
2023-02-12T21:01:29.385Z,44.22
2023-02-12T21:03:34.287Z,47.15
2023-02-12T21:05:42.326Z,52.70
2023-02-12T21:07:49.788Z,54.88
2023-02-12T21:09:56.651Z,55.03
2023-02-12T21:12:04.103Z,54.28
2023-02-12T21:14:25.054Z,52.35
2023-02-12T21:16:34.740Z,50.05
2023-02-12T21:18:40.789Z,45.17
2023-02-12T21:20:45.645Z,46.90
2023-02-12T21:22:50.492Z,42.88
2023-02-12T21:24:55.333Z,42.88
2023-02-12T21:27:03.146Z,42.38
2023-02-12T21:29:08.088Z,39.83
2023-02-12T21:31:15.086Z,40.55
2023-02-12T21:33:19.976Z,41.05
2023-02-12T21:35:24.805Z,43.65
2023-02-12T21:37:29.700Z,55.65
2023-02-12T21:39:34.526Z,49.03
2023-02-12T21:41:41.841Z,52.28
2023-02-12T21:43:51.348Z,51.30
2023-02-12T21:45:56.498Z,46.72
2023-02-12T21:50:06.863Z,48.42
2023-02-12T21:54:18.277Z,46.10
2023-02-12T21:56:23.913Z,45.17
2023-02-12T21:58:28.815Z,42.03
2023-02-12T22:00:36.264Z,43.72
2023-02-12T22:02:41.181Z,46.85
2023-02-12T22:04:46.151Z,45.40
2023-02-12T22:06:54.151Z,46.42
2023-02-12T22:09:03.331Z,49.85
2023-02-12T22:11:09.656Z,43.47
2023-02-12T22:13:14.601Z,49.53
2023-02-12T22:15:19.633Z,49.22
2023-02-12T22:17:27.023Z,49.53
2023-02-12T22:19:31.996Z,45.22
2023-02-12T22:21:39.008Z,43.88
2023-02-12T22:23:44.824Z,41.72
2023-02-12T22:25:49.641Z,40.97
2023-02-12T22:27:54.963Z,39.03
2023-02-12T22:32:04.612Z,38.60
2023-02-12T22:34:15.177Z,41.53
2023-02-12T22:36:22.009Z,37.58
2023-02-12T22:38:26.829Z,41.65
2023-02-12T22:40:31.960Z,44.10
2023-02-12T22:42:36.848Z,39.20
2023-02-12T22:44:41.758Z,39.55
2023-02-12T22:46:46.579Z,38.10
2023-02-12T22:48:51.945Z,45.15
2023-02-12T22:51:03.145Z,47.38
2023-02-12T22:53:08.170Z,50.28
2023-02-12T22:57:19.622Z,53.55
2023-02-12T22:59:24.779Z,41.92
2023-02-12T23:01:31.015Z,45.92
2023-02-12T23:03:37.529Z,45.53
2023-02-12T23:05:42.470Z,46.33
2023-02-12T23:07:49.911Z,45.10
2023-02-12T23:09:54.959Z,43.17
2023-02-12T23:11:59.779Z,54.33
2023-02-12T23:14:04.651Z,45.95
2023-02-12T23:16:09.673Z,41.25
2023-02-12T23:18:14.545Z,45.55
2023-02-12T23:20:19.387Z,46.85
2023-02-12T23:22:24.290Z,46.38
2023-02-12T23:24:31.766Z,48.88
2023-02-12T23:26:36.759Z,46.17
2023-02-12T23:28:41.671Z,46.15
2023-02-12T23:30:46.588Z,48.45
2023-02-12T23:32:51.515Z,51.35
2023-02-12T23:34:56.285Z,44.45
2023-02-12T23:37:01.123Z,46.50
2023-02-12T23:39:06.621Z,44.80
2023-02-12T23:41:14.142Z,46.95
2023-02-12T23:43:19.001Z,44.80
2023-02-12T23:45:23.763Z,39.10
2023-02-12T23:47:28.621Z,38.38
2023-02-12T23:49:35.285Z,42.58
2023-02-12T23:51:40.062Z,43.28
2023-02-12T23:53:45.243Z,43.35
2023-02-12T23:57:59.479Z,47.85
